sensor_id;sensor_type;location;lat;lon;timestamp;temperature;humidity
18103;DHT22;9178;51.120;6.192;2022-11-02T00:00:11;13.40;99.90
18103;DHT22;9178;51.120;6.192;2022-11-02T00:02:39;13.40;99.90
18103;DHT22;9178;51.120;6.192;2022-11-02T00:05:09;13.40;99.90
18103;DHT22;9178;51.120;6.192;2022-11-02T00:07:36;13.40;99.90
18103;DHT22;9178;51.120;6.192;2022-11-02T00:10:04;13.40;99.90
18103;DHT22;9178;51.120;6.192;2022-11-02T00:12:31;13.40;99.90
18103;DHT22;9178;51.120;6.192;2022-11-02T00:14:59;13.40;99.90
18103;DHT22;9178;51.120;6.192;2022-11-02T00:17:33;13.40;99.90
18103;DHT22;9178;51.120;6.192;2022-11-02T00:20:02;13.40;99.90
18103;DHT22;9178;51.120;6.192;2022-11-02T00:22:30;13.40;99.90
18103;DHT22;9178;51.120;6.192;2022-11-02T00:24:58;13.40;99.90
18103;DHT22;9178;51.120;6.192;2022-11-02T00:27:27;13.40;99.90
18103;DHT22;9178;51.120;6.192;2022-11-02T00:29:54;13.40;99.90
18103;DHT22;9178;51.120;6.192;2022-11-02T00:32:21;13.40;99.90
18103;DHT22;9178;51.120;6.192;2022-11-02T00:34:49;13.40;99.90
18103;DHT22;9178;51.120;6.192;2022-11-02T00:37:16;13.40;99.90
18103;DHT22;9178;51.120;6.192;2022-11-02T00:39:44;13.30;99.90
18103;DHT22;9178;51.120;6.192;2022-11-02T00:42:11;13.30;99.90
18103;DHT22;9178;51.120;6.192;2022-11-02T00:44:37;13.20;99.90
18103;DHT22;9178;51.120;6.192;2022-11-02T00:47:04;13.20;99.90
18103;DHT22;9178;51.120;6.192;2022-11-02T00:49:31;13.10;99.90
18103;DHT22;9178;51.120;6.192;2022-11-02T00:52:00;13.10;99.90
18103;DHT22;9178;51.120;6.192;2022-11-02T00:54:27;13.10;99.90
18103;DHT22;9178;51.120;6.192;2022-11-02T00:56:53;13.00;99.90
18103;DHT22;9178;51.120;6.192;2022-11-02T00:59:20;13.00;99.90
18103;DHT22;9178;51.120;6.192;2022-11-02T01:01:47;12.90;99.90
18103;DHT22;9178;51.120;6.192;2022-11-02T01:04:15;12.90;99.90
18103;DHT22;9178;51.120;6.192;2022-11-02T01:06:42;12.90;99.90
18103;DHT22;9178;51.120;6.192;2022-11-02T01:09:13;12.80;99.90
18103;DHT22;9178;51.120;6.192;2022-11-02T01:11:41;12.80;99.90
18103;DHT22;9178;51.120;6.192;2022-11-02T01:14:09;12.80;99.90
18103;DHT22;9178;51.120;6.192;2022-11-02T01:16:37;12.90;99.90
18103;DHT22;9178;51.120;6.192;2022-11-02T01:19:04;12.90;99.90
18103;DHT22;9178;51.120;6.192;2022-11-02T01:21:31;12.90;99.90
18103;DHT22;9178;51.120;6.192;2022-11-02T01:23:58;13.00;99.90
18103;DHT22;9178;51.120;6.192;2022-11-02T01:26:26;12.90;99.90
18103;DHT22;9178;51.120;6.192;2022-11-02T01:28:53;12.90;99.90
18103;DHT22;9178;51.120;6.192;2022-11-02T01:31:20;12.90;99.90
18103;DHT22;9178;51.120;6.192;2022-11-02T01:33:48;12.80;99.90
18103;DHT22;9178;51.120;6.192;2022-11-02T01:36:17;12.80;99.90
18103;DHT22;9178;51.120;6.192;2022-11-02T01:38:46;12.70;99.90
18103;DHT22;9178;51.120;6.192;2022-11-02T01:41:15;12.70;99.90
18103;DHT22;9178;51.120;6.192;2022-11-02T01:43:44;12.70;99.90
18103;DHT22;9178;51.120;6.192;2022-11-02T01:46:16;12.60;99.90
18103;DHT22;9178;51.120;6.192;2022-11-02T01:48:48;12.60;99.90
18103;DHT22;9178;51.120;6.192;2022-11-02T01:51:18;12.70;99.90
18103;DHT22;9178;51.120;6.192;2022-11-02T01:53:48;12.60;99.90
18103;DHT22;9178;51.120;6.192;2022-11-02T01:56:19;12.50;99.90
18103;DHT22;9178;51.120;6.192;2022-11-02T01:58:53;12.60;99.90
18103;DHT22;9178;51.120;6.192;2022-11-02T02:01:20;12.60;99.90
18103;DHT22;9178;51.120;6.192;2022-11-02T02:03:47;12.60;99.90
18103;DHT22;9178;51.120;6.192;2022-11-02T02:06:15;12.70;99.90
18103;DHT22;9178;51.120;6.192;2022-11-02T02:08:45;12.70;99.90
18103;DHT22;9178;51.120;6.192;2022-11-02T02:11:24;12.70;99.90
18103;DHT22;9178;51.120;6.192;2022-11-02T02:13:55;12.70;99.90
18103;DHT22;9178;51.120;6.192;2022-11-02T02:16:35;12.70;99.90
18103;DHT22;9178;51.120;6.192;2022-11-02T02:19:15;12.70;99.90
18103;DHT22;9178;51.120;6.192;2022-11-02T02:21:51;12.70;99.90
18103;DHT22;9178;51.120;6.192;2022-11-02T02:24:35;12.60;99.90
18103;DHT22;9178;51.120;6.192;2022-11-02T02:27:11;12.50;99.90
18103;DHT22;9178;51.120;6.192;2022-11-02T02:29:50;12.50;99.90
18103;DHT22;9178;51.120;6.192;2022-11-02T02:32:23;12.50;99.90
18103;DHT22;9178;51.120;6.192;2022-11-02T02:34:57;12.50;99.90
18103;DHT22;9178;51.120;6.192;2022-11-02T02:37:33;12.40;99.90
18103;DHT22;9178;51.120;6.192;2022-11-02T02:40:04;12.40;99.90
18103;DHT22;9178;51.120;6.192;2022-11-02T02:42:35;12.40;99.90
18103;DHT22;9178;51.120;6.192;2022-11-02T02:45:13;12.30;99.90
18103;DHT22;9178;51.120;6.192;2022-11-02T02:47:45;12.30;99.90
18103;DHT22;9178;51.120;6.192;2022-11-02T02:50:17;12.30;99.90
18103;DHT22;9178;51.120;6.192;2022-11-02T02:52:49;12.20;99.90
18103;DHT22;9178;51.120;6.192;2022-11-02T02:55:19;12.20;99.90
18103;DHT22;9178;51.120;6.192;2022-11-02T02:57:47;12.30;99.90
18103;DHT22;9178;51.120;6.192;2022-11-02T03:00:17;12.20;99.90
18103;DHT22;9178;51.120;6.192;2022-11-02T03:02:45;12.20;99.90
18103;DHT22;9178;51.120;6.192;2022-11-02T03:05:27;12.20;99.90
18103;DHT22;9178;51.120;6.192;2022-11-02T03:08:06;12.20;99.90
18103;DHT22;9178;51.120;6.192;2022-11-02T03:10:43;12.20;99.90
18103;DHT22;9178;51.120;6.192;2022-11-02T03:13:32;12.10;99.90
18103;DHT22;9178;51.120;6.192;2022-11-02T03:16:09;12.10;99.90
18103;DHT22;9178;51.120;6.192;2022-11-02T03:18:45;12.10;99.90
18103;DHT22;9178;51.120;6.192;2022-11-02T03:21:19;12.10;99.90
18103;DHT22;9178;51.120;6.192;2022-11-02T03:23:53;12.00;99.90
18103;DHT22;9178;51.120;6.192;2022-11-02T03:26:25;12.00;99.90
18103;DHT22;9178;51.120;6.192;2022-11-02T03:28:59;12.00;99.90
18103;DHT22;9178;51.120;6.192;2022-11-02T03:31:33;11.90;99.90
18103;DHT22;9178;51.120;6.192;2022-11-02T03:34:08;11.90;99.90
18103;DHT22;9178;51.120;6.192;2022-11-02T03:36:41;11.90;99.90
18103;DHT22;9178;51.120;6.192;2022-11-02T03:39:12;11.90;99.90
18103;DHT22;9178;51.120;6.192;2022-11-02T03:41:43;12.00;99.90
18103;DHT22;9178;51.120;6.192;2022-11-02T03:44:14;12.00;99.90
18103;DHT22;9178;51.120;6.192;2022-11-02T03:46:51;11.90;99.90
18103;DHT22;9178;51.120;6.192;2022-11-02T03:49:22;12.00;99.90
18103;DHT22;9178;51.120;6.192;2022-11-02T03:51:50;12.00;99.90
18103;DHT22;9178;51.120;6.192;2022-11-02T03:54:26;12.00;99.90
18103;DHT22;9178;51.120;6.192;2022-11-02T03:56:57;12.00;99.90
18103;DHT22;9178;51.120;6.192;2022-11-02T03:59:29;12.00;99.90
18103;DHT22;9178;51.120;6.192;2022-11-02T04:01:59;12.00;99.90
18103;DHT22;9178;51.120;6.192;2022-11-02T04:04:26;12.00;99.90
18103;DHT22;9178;51.120;6.192;2022-11-02T04:06:56;12.00;99.90
18103;DHT22;9178;51.120;6.192;2022-11-02T04:09:23;12.00;99.90
18103;DHT22;9178;51.120;6.192;2022-11-02T04:11:50;11.90;99.90
18103;DHT22;9178;51.120;6.192;2022-11-02T04:14:35;12.00;99.90
18103;DHT22;9178;51.120;6.192;2022-11-02T04:17:06;11.90;99.90
18103;DHT22;9178;51.120;6.192;2022-11-02T04:19:51;11.90;99.90
18103;DHT22;9178;51.120;6.192;2022-11-02T04:22:19;11.90;99.90
18103;DHT22;9178;51.120;6.192;2022-11-02T04:25:04;11.90;99.90
18103;DHT22;9178;51.120;6.192;2022-11-02T04:27:48;11.90;99.90
18103;DHT22;9178;51.120;6.192;2022-11-02T04:30:17;11.90;99.90
18103;DHT22;9178;51.120;6.192;2022-11-02T04:32:46;11.90;99.90
18103;DHT22;9178;51.120;6.192;2022-11-02T04:35:33;11.80;99.90
18103;DHT22;9178;51.120;6.192;2022-11-02T04:38:00;11.80;99.90
18103;DHT22;9178;51.120;6.192;2022-11-02T04:40:45;11.80;99.90
18103;DHT22;9178;51.120;6.192;2022-11-02T04:43:12;11.70;99.90
18103;DHT22;9178;51.120;6.192;2022-11-02T04:45:40;11.70;99.90
18103;DHT22;9178;51.120;6.192;2022-11-02T04:48:09;11.70;99.90
18103;DHT22;9178;51.120;6.192;2022-11-02T04:50:38;11.60;99.90
18103;DHT22;9178;51.120;6.192;2022-11-02T04:53:05;11.60;99.90
18103;DHT22;9178;51.120;6.192;2022-11-02T04:55:33;11.60;99.90
18103;DHT22;9178;51.120;6.192;2022-11-02T04:58:00;11.60;99.90
18103;DHT22;9178;51.120;6.192;2022-11-02T05:00:27;11.70;99.90
18103;DHT22;9178;51.120;6.192;2022-11-02T05:02:54;11.60;99.90
18103;DHT22;9178;51.120;6.192;2022-11-02T05:05:23;11.60;99.90
18103;DHT22;9178;51.120;6.192;2022-11-02T05:07:50;11.60;99.90
18103;DHT22;9178;51.120;6.192;2022-11-02T05:10:18;11.60;99.90
18103;DHT22;9178;51.120;6.192;2022-11-02T05:12:44;11.60;99.90
18103;DHT22;9178;51.120;6.192;2022-11-02T05:15:11;11.60;99.90
18103;DHT22;9178;51.120;6.192;2022-11-02T05:17:39;11.60;99.90
18103;DHT22;9178;51.120;6.192;2022-11-02T05:20:09;11.60;99.90
18103;DHT22;9178;51.120;6.192;2022-11-02T05:22:40;11.60;99.90
18103;DHT22;9178;51.120;6.192;2022-11-02T05:25:08;11.50;99.90
18103;DHT22;9178;51.120;6.192;2022-11-02T05:27:35;11.60;99.90
18103;DHT22;9178;51.120;6.192;2022-11-02T05:30:03;11.60;99.90
18103;DHT22;9178;51.120;6.192;2022-11-02T05:32:31;11.50;99.90
18103;DHT22;9178;51.120;6.192;2022-11-02T05:34:59;11.50;99.90
18103;DHT22;9178;51.120;6.192;2022-11-02T05:37:26;11.40;99.90
18103;DHT22;9178;51.120;6.192;2022-11-02T05:39:54;11.40;99.90
18103;DHT22;9178;51.120;6.192;2022-11-02T05:42:23;11.40;99.90
18103;DHT22;9178;51.120;6.192;2022-11-02T05:44:50;11.40;99.90
18103;DHT22;9178;51.120;6.192;2022-11-02T05:47:19;11.40;99.90
18103;DHT22;9178;51.120;6.192;2022-11-02T05:49:46;11.40;99.90
18103;DHT22;9178;51.120;6.192;2022-11-02T05:52:14;11.40;99.90
18103;DHT22;9178;51.120;6.192;2022-11-02T05:54:41;11.30;99.90
18103;DHT22;9178;51.120;6.192;2022-11-02T05:57:09;11.30;99.90
18103;DHT22;9178;51.120;6.192;2022-11-02T05:59:36;11.30;99.90
18103;DHT22;9178;51.120;6.192;2022-11-02T06:02:03;11.30;99.90
18103;DHT22;9178;51.120;6.192;2022-11-02T06:04:29;11.30;99.90
18103;DHT22;9178;51.120;6.192;2022-11-02T06:06:56;11.20;99.90
18103;DHT22;9178;51.120;6.192;2022-11-02T06:09:23;11.20;99.90
18103;DHT22;9178;51.120;6.192;2022-11-02T06:11:50;11.20;99.90
18103;DHT22;9178;51.120;6.192;2022-11-02T06:14:18;11.20;99.90
18103;DHT22;9178;51.120;6.192;2022-11-02T06:16:45;11.20;99.90
18103;DHT22;9178;51.120;6.192;2022-11-02T06:19:12;11.20;99.90
18103;DHT22;9178;51.120;6.192;2022-11-02T06:21:38;11.10;99.90
18103;DHT22;9178;51.120;6.192;2022-11-02T06:24:07;11.10;99.90
18103;DHT22;9178;51.120;6.192;2022-11-02T06:26:33;11.10;99.90
18103;DHT22;9178;51.120;6.192;2022-11-02T06:29:01;11.10;99.90
18103;DHT22;9178;51.120;6.192;2022-11-02T06:31:29;11.10;99.90
18103;DHT22;9178;51.120;6.192;2022-11-02T06:33:55;11.10;99.90
18103;DHT22;9178;51.120;6.192;2022-11-02T06:36:22;11.10;99.90
18103;DHT22;9178;51.120;6.192;2022-11-02T06:38:49;11.10;99.90
18103;DHT22;9178;51.120;6.192;2022-11-02T06:41:16;11.10;99.90
18103;DHT22;9178;51.120;6.192;2022-11-02T06:43:43;11.10;99.90
18103;DHT22;9178;51.120;6.192;2022-11-02T06:46:10;11.10;99.90
18103;DHT22;9178;51.120;6.192;2022-11-02T06:48:38;11.10;99.90
18103;DHT22;9178;51.120;6.192;2022-11-02T06:51:05;11.10;99.90
18103;DHT22;9178;51.120;6.192;2022-11-02T06:53:33;11.10;99.90
18103;DHT22;9178;51.120;6.192;2022-11-02T06:56:00;11.20;99.90
18103;DHT22;9178;51.120;6.192;2022-11-02T06:58:28;11.30;99.90
18103;DHT22;9178;51.120;6.192;2022-11-02T07:00:57;11.30;99.90
18103;DHT22;9178;51.120;6.192;2022-11-02T07:03:24;11.50;99.90
18103;DHT22;9178;51.120;6.192;2022-11-02T07:05:52;11.60;99.90
18103;DHT22;9178;51.120;6.192;2022-11-02T07:08:20;11.70;99.90
18103;DHT22;9178;51.120;6.192;2022-11-02T07:10:48;11.80;99.90
18103;DHT22;9178;51.120;6.192;2022-11-02T07:13:16;11.70;99.90
18103;DHT22;9178;51.120;6.192;2022-11-02T07:15:43;11.60;99.90
18103;DHT22;9178;51.120;6.192;2022-11-02T07:18:10;11.60;99.90
18103;DHT22;9178;51.120;6.192;2022-11-02T07:20:38;11.60;99.90
18103;DHT22;9178;51.120;6.192;2022-11-02T07:23:06;11.50;99.90
18103;DHT22;9178;51.120;6.192;2022-11-02T07:25:33;11.50;99.90
18103;DHT22;9178;51.120;6.192;2022-11-02T07:28:01;11.50;99.90
18103;DHT22;9178;51.120;6.192;2022-11-02T07:30:28;11.40;99.90
18103;DHT22;9178;51.120;6.192;2022-11-02T07:32:55;11.50;99.90
18103;DHT22;9178;51.120;6.192;2022-11-02T07:35:23;11.50;99.90
18103;DHT22;9178;51.120;6.192;2022-11-02T07:37:56;11.50;99.90
18103;DHT22;9178;51.120;6.192;2022-11-02T07:40:25;11.50;99.90
18103;DHT22;9178;51.120;6.192;2022-11-02T07:42:52;11.50;99.90
18103;DHT22;9178;51.120;6.192;2022-11-02T07:45:19;11.50;99.90
18103;DHT22;9178;51.120;6.192;2022-11-02T07:47:47;11.50;99.90
18103;DHT22;9178;51.120;6.192;2022-11-02T07:50:16;11.50;99.90
18103;DHT22;9178;51.120;6.192;2022-11-02T07:52:45;11.50;99.90
18103;DHT22;9178;51.120;6.192;2022-11-02T07:55:13;11.50;99.90
18103;DHT22;9178;51.120;6.192;2022-11-02T07:57:41;11.60;99.90
18103;DHT22;9178;51.120;6.192;2022-11-02T08:00:09;11.60;99.90
18103;DHT22;9178;51.120;6.192;2022-11-02T08:02:39;11.60;99.90
18103;DHT22;9178;51.120;6.192;2022-11-02T08:05:07;11.60;99.90
18103;DHT22;9178;51.120;6.192;2022-11-02T08:07:34;11.70;99.90
18103;DHT22;9178;51.120;6.192;2022-11-02T08:10:02;11.90;99.90
18103;DHT22;9178;51.120;6.192;2022-11-02T08:12:40;12.10;99.90
18103;DHT22;9178;51.120;6.192;2022-11-02T08:15:07;12.10;99.90
18103;DHT22;9178;51.120;6.192;2022-11-02T08:17:34;12.10;99.90
18103;DHT22;9178;51.120;6.192;2022-11-02T08:20:02;12.10;99.90
18103;DHT22;9178;51.120;6.192;2022-11-02T08:22:30;12.10;99.90
18103;DHT22;9178;51.120;6.192;2022-11-02T08:24:57;12.10;99.90
18103;DHT22;9178;51.120;6.192;2022-11-02T08:27:24;12.10;99.90
18103;DHT22;9178;51.120;6.192;2022-11-02T08:29:52;12.20;99.90
18103;DHT22;9178;51.120;6.192;2022-11-02T08:32:19;12.20;99.90
18103;DHT22;9178;51.120;6.192;2022-11-02T08:34:46;12.20;99.90
18103;DHT22;9178;51.120;6.192;2022-11-02T08:37:13;12.20;99.90
18103;DHT22;9178;51.120;6.192;2022-11-02T08:39:40;12.20;99.90
18103;DHT22;9178;51.120;6.192;2022-11-02T08:42:07;12.20;99.90
18103;DHT22;9178;51.120;6.192;2022-11-02T08:44:33;12.20;99.90
18103;DHT22;9178;51.120;6.192;2022-11-02T08:47:01;12.20;99.90
18103;DHT22;9178;51.120;6.192;2022-11-02T08:49:29;12.20;99.90
18103;DHT22;9178;51.120;6.192;2022-11-02T08:51:56;12.30;99.90
18103;DHT22;9178;51.120;6.192;2022-11-02T08:54:26;12.30;99.90
18103;DHT22;9178;51.120;6.192;2022-11-02T08:56:53;12.30;99.90
18103;DHT22;9178;51.120;6.192;2022-11-02T08:59:20;12.30;99.90
18103;DHT22;9178;51.120;6.192;2022-11-02T09:01:47;12.30;99.90
18103;DHT22;9178;51.120;6.192;2022-11-02T09:04:15;12.30;99.90
18103;DHT22;9178;51.120;6.192;2022-11-02T09:06:43;12.30;99.90
18103;DHT22;9178;51.120;6.192;2022-11-02T09:09:12;12.40;99.90
18103;DHT22;9178;51.120;6.192;2022-11-02T09:11:39;12.40;99.90
18103;DHT22;9178;51.120;6.192;2022-11-02T09:14:05;12.50;99.90
18103;DHT22;9178;51.120;6.192;2022-11-02T09:16:32;12.50;99.90
18103;DHT22;9178;51.120;6.192;2022-11-02T09:19:01;12.50;99.90
18103;DHT22;9178;51.120;6.192;2022-11-02T09:21:32;12.70;99.90
18103;DHT22;9178;51.120;6.192;2022-11-02T09:23:59;12.80;99.90
18103;DHT22;9178;51.120;6.192;2022-11-02T09:26:26;12.70;99.90
18103;DHT22;9178;51.120;6.192;2022-11-02T09:28:53;12.80;99.90
18103;DHT22;9178;51.120;6.192;2022-11-02T09:31:20;12.90;99.90
18103;DHT22;9178;51.120;6.192;2022-11-02T09:33:47;12.90;99.90
18103;DHT22;9178;51.120;6.192;2022-11-02T09:36:14;12.80;99.90
18103;DHT22;9178;51.120;6.192;2022-11-02T09:38:42;12.80;99.90
18103;DHT22;9178;51.120;6.192;2022-11-02T09:41:13;12.80;99.90
18103;DHT22;9178;51.120;6.192;2022-11-02T09:43:49;12.80;99.90
18103;DHT22;9178;51.120;6.192;2022-11-02T09:46:22;12.80;99.90
18103;DHT22;9178;51.120;6.192;2022-11-02T09:48:52;12.80;99.90
18103;DHT22;9178;51.120;6.192;2022-11-02T09:51:21;12.90;99.90
18103;DHT22;9178;51.120;6.192;2022-11-02T09:53:57;12.90;99.90
18103;DHT22;9178;51.120;6.192;2022-11-02T09:56:29;12.90;99.90
18103;DHT22;9178;51.120;6.192;2022-11-02T09:59:00;12.90;99.90
18103;DHT22;9178;51.120;6.192;2022-11-02T10:01:38;12.90;99.90
18103;DHT22;9178;51.120;6.192;2022-11-02T10:04:31;13.00;99.90
18103;DHT22;9178;51.120;6.192;2022-11-02T10:07:07;13.10;99.90
18103;DHT22;9178;51.120;6.192;2022-11-02T10:09:42;13.10;99.90
18103;DHT22;9178;51.120;6.192;2022-11-02T10:12:13;13.10;99.90
18103;DHT22;9178;51.120;6.192;2022-11-02T10:14:48;13.10;99.90
18103;DHT22;9178;51.120;6.192;2022-11-02T10:17:19;13.10;99.90
18103;DHT22;9178;51.120;6.192;2022-11-02T10:19:52;13.20;99.90
18103;DHT22;9178;51.120;6.192;2022-11-02T10:22:26;13.20;99.90
18103;DHT22;9178;51.120;6.192;2022-11-02T10:25:00;13.30;99.90
18103;DHT22;9178;51.120;6.192;2022-11-02T10:27:35;13.50;99.90
18103;DHT22;9178;51.120;6.192;2022-11-02T10:30:05;13.80;99.90
18103;DHT22;9178;51.120;6.192;2022-11-02T10:32:35;14.10;99.90
18103;DHT22;9178;51.120;6.192;2022-11-02T10:35:04;14.30;99.90
18103;DHT22;9178;51.120;6.192;2022-11-02T10:37:51;14.80;99.90
18103;DHT22;9178;51.120;6.192;2022-11-02T10:40:33;15.00;99.90
18103;DHT22;9178;51.120;6.192;2022-11-02T10:43:14;14.90;99.90
18103;DHT22;9178;51.120;6.192;2022-11-02T10:46:05;14.70;99.90
18103;DHT22;9178;51.120;6.192;2022-11-02T10:48:41;14.60;99.90
18103;DHT22;9178;51.120;6.192;2022-11-02T10:51:13;14.50;99.90
18103;DHT22;9178;51.120;6.192;2022-11-02T10:53:43;14.50;99.90
18103;DHT22;9178;51.120;6.192;2022-11-02T10:56:15;14.40;99.90
18103;DHT22;9178;51.120;6.192;2022-11-02T10:58:48;14.40;99.90
18103;DHT22;9178;51.120;6.192;2022-11-02T11:01:16;14.30;99.90
18103;DHT22;9178;51.120;6.192;2022-11-02T11:03:56;14.30;99.90
18103;DHT22;9178;51.120;6.192;2022-11-02T11:06:28;14.30;99.90
18103;DHT22;9178;51.120;6.192;2022-11-02T11:09:03;14.30;99.90
18103;DHT22;9178;51.120;6.192;2022-11-02T11:11:34;14.20;99.90
18103;DHT22;9178;51.120;6.192;2022-11-02T11:14:04;14.20;99.90
18103;DHT22;9178;51.120;6.192;2022-11-02T11:16:38;14.30;99.90
18103;DHT22;9178;51.120;6.192;2022-11-02T11:19:17;14.30;99.90
18103;DHT22;9178;51.120;6.192;2022-11-02T11:21:44;14.40;99.90
18103;DHT22;9178;51.120;6.192;2022-11-02T11:24:23;14.60;99.90
18103;DHT22;9178;51.120;6.192;2022-11-02T11:27:13;14.90;99.90
18103;DHT22;9178;51.120;6.192;2022-11-02T11:29:46;15.40;99.90
18103;DHT22;9178;51.120;6.192;2022-11-02T11:32:16;15.90;99.90
18103;DHT22;9178;51.120;6.192;2022-11-02T11:34:49;16.20;99.90
18103;DHT22;9178;51.120;6.192;2022-11-02T11:37:19;16.40;99.90
18103;DHT22;9178;51.120;6.192;2022-11-02T11:39:50;16.50;99.90
18103;DHT22;9178;51.120;6.192;2022-11-02T11:42:21;16.30;99.90
18103;DHT22;9178;51.120;6.192;2022-11-02T11:44:58;16.00;99.90
18103;DHT22;9178;51.120;6.192;2022-11-02T11:47:28;15.80;99.90
18103;DHT22;9178;51.120;6.192;2022-11-02T11:49:56;15.60;99.90
18103;DHT22;9178;51.120;6.192;2022-11-02T11:52:28;15.50;99.90
18103;DHT22;9178;51.120;6.192;2022-11-02T11:54:56;15.50;99.90
18103;DHT22;9178;51.120;6.192;2022-11-02T11:57:30;15.50;99.90
18103;DHT22;9178;51.120;6.192;2022-11-02T11:59:58;15.50;99.90
18103;DHT22;9178;51.120;6.192;2022-11-02T12:02:30;15.50;99.90
18103;DHT22;9178;51.120;6.192;2022-11-02T12:05:00;15.40;99.90
18103;DHT22;9178;51.120;6.192;2022-11-02T12:07:43;15.30;99.90
18103;DHT22;9178;51.120;6.192;2022-11-02T12:10:18;15.20;99.90
18103;DHT22;9178;51.120;6.192;2022-11-02T12:13:02;15.00;99.90
18103;DHT22;9178;51.120;6.192;2022-11-02T12:15:49;15.00;99.90
18103;DHT22;9178;51.120;6.192;2022-11-02T12:18:38;14.90;99.90
18103;DHT22;9178;51.120;6.192;2022-11-02T12:21:17;14.90;99.90
18103;DHT22;9178;51.120;6.192;2022-11-02T12:24:03;14.80;99.90
18103;DHT22;9178;51.120;6.192;2022-11-02T12:26:41;14.80;99.90
18103;DHT22;9178;51.120;6.192;2022-11-02T12:29:34;14.90;99.90
18103;DHT22;9178;51.120;6.192;2022-11-02T12:32:11;15.00;99.90
18103;DHT22;9178;51.120;6.192;2022-11-02T12:35:04;15.00;99.90
18103;DHT22;9178;51.120;6.192;2022-11-02T12:37:39;14.90;99.90
18103;DHT22;9178;51.120;6.192;2022-11-02T12:40:20;14.70;99.90
18103;DHT22;9178;51.120;6.192;2022-11-02T12:42:55;14.80;99.90
18103;DHT22;9178;51.120;6.192;2022-11-02T12:45:38;14.80;99.90
18103;DHT22;9178;51.120;6.192;2022-11-02T12:48:15;14.80;99.90
18103;DHT22;9178;51.120;6.192;2022-11-02T12:50:58;14.70;99.90
18103;DHT22;9178;51.120;6.192;2022-11-02T12:53:45;14.60;99.90
18103;DHT22;9178;51.120;6.192;2022-11-02T12:56:18;14.50;99.90
18103;DHT22;9178;51.120;6.192;2022-11-02T12:58:47;14.50;99.90
18103;DHT22;9178;51.120;6.192;2022-11-02T13:01:21;14.40;99.90
18103;DHT22;9178;51.120;6.192;2022-11-02T13:03:54;14.30;99.90
18103;DHT22;9178;51.120;6.192;2022-11-02T13:06:27;14.30;99.90
18103;DHT22;9178;51.120;6.192;2022-11-02T13:09:01;14.30;99.90
18103;DHT22;9178;51.120;6.192;2022-11-02T13:11:33;14.40;99.90
18103;DHT22;9178;51.120;6.192;2022-11-02T13:14:04;14.30;99.90
18103;DHT22;9178;51.120;6.192;2022-11-02T13:16:38;14.40;99.90
18103;DHT22;9178;51.120;6.192;2022-11-02T13:19:13;14.30;99.90
18103;DHT22;9178;51.120;6.192;2022-11-02T13:21:47;14.30;99.90
18103;DHT22;9178;51.120;6.192;2022-11-02T13:24:18;14.30;99.90
18103;DHT22;9178;51.120;6.192;2022-11-02T13:26:48;14.30;99.90
18103;DHT22;9178;51.120;6.192;2022-11-02T13:29:20;14.30;99.90
18103;DHT22;9178;51.120;6.192;2022-11-02T13:31:51;14.40;99.90
18103;DHT22;9178;51.120;6.192;2022-11-02T13:34:30;14.40;99.90
18103;DHT22;9178;51.120;6.192;2022-11-02T13:37:01;14.40;99.90
18103;DHT22;9178;51.120;6.192;2022-11-02T13:39:32;14.50;99.90
18103;DHT22;9178;51.120;6.192;2022-11-02T13:42:20;14.50;99.90
18103;DHT22;9178;51.120;6.192;2022-11-02T13:45:13;14.60;99.90
18103;DHT22;9178;51.120;6.192;2022-11-02T13:48:09;14.70;99.90
18103;DHT22;9178;51.120;6.192;2022-11-02T13:50:42;14.70;99.90
18103;DHT22;9178;51.120;6.192;2022-11-02T13:53:15;14.70;99.90
18103;DHT22;9178;51.120;6.192;2022-11-02T13:55:48;14.60;99.90
18103;DHT22;9178;51.120;6.192;2022-11-02T13:58:21;14.60;99.90
18103;DHT22;9178;51.120;6.192;2022-11-02T14:00:51;14.50;99.90
18103;DHT22;9178;51.120;6.192;2022-11-02T14:03:22;14.50;99.90
18103;DHT22;9178;51.120;6.192;2022-11-02T14:05:54;14.50;99.90
18103;DHT22;9178;51.120;6.192;2022-11-02T14:08:29;14.40;99.90
18103;DHT22;9178;51.120;6.192;2022-11-02T14:14:14;14.30;99.90
18103;DHT22;9178;51.120;6.192;2022-11-02T14:16:43;14.30;99.90
18103;DHT22;9178;51.120;6.192;2022-11-02T14:19:22;14.20;99.90
18103;DHT22;9178;51.120;6.192;2022-11-02T14:22:11;14.20;99.90
18103;DHT22;9178;51.120;6.192;2022-11-02T14:24:52;14.20;99.90
18103;DHT22;9178;51.120;6.192;2022-11-02T14:27:29;14.10;99.90
18103;DHT22;9178;51.120;6.192;2022-11-02T14:29:56;14.10;99.90
18103;DHT22;9178;51.120;6.192;2022-11-02T14:32:45;14.10;99.90
18103;DHT22;9178;51.120;6.192;2022-11-02T14:35:39;14.00;99.90
18103;DHT22;9178;51.120;6.192;2022-11-02T14:41:30;13.90;99.90
18103;DHT22;9178;51.120;6.192;2022-11-02T14:44:18;13.90;99.90
18103;DHT22;9178;51.120;6.192;2022-11-02T14:46:53;13.80;99.90
18103;DHT22;9178;51.120;6.192;2022-11-02T14:49:24;13.80;99.90
18103;DHT22;9178;51.120;6.192;2022-11-02T14:52:00;13.70;99.90
18103;DHT22;9178;51.120;6.192;2022-11-02T14:54:29;13.70;99.90
18103;DHT22;9178;51.120;6.192;2022-11-02T14:57:00;13.60;99.90
18103;DHT22;9178;51.120;6.192;2022-11-02T14:59:31;13.60;99.90
18103;DHT22;9178;51.120;6.192;2022-11-02T15:02:00;13.50;99.90
18103;DHT22;9178;51.120;6.192;2022-11-02T15:04:29;13.50;99.90
18103;DHT22;9178;51.120;6.192;2022-11-02T15:07:00;13.40;99.90
18103;DHT22;9178;51.120;6.192;2022-11-02T15:09:51;13.40;99.90
18103;DHT22;9178;51.120;6.192;2022-11-02T15:12:31;13.40;99.90
18103;DHT22;9178;51.120;6.192;2022-11-02T15:18:19;13.30;99.90
18103;DHT22;9178;51.120;6.192;2022-11-02T15:21:21;13.20;99.90
18103;DHT22;9178;51.120;6.192;2022-11-02T15:24:00;13.20;99.90
18103;DHT22;9178;51.120;6.192;2022-11-02T15:26:34;13.10;99.90
18103;DHT22;9178;51.120;6.192;2022-11-02T15:29:13;13.00;99.90
18103;DHT22;9178;51.120;6.192;2022-11-02T15:31:41;13.00;99.90
18103;DHT22;9178;51.120;6.192;2022-11-02T15:34:13;12.90;99.90
18103;DHT22;9178;51.120;6.192;2022-11-02T15:36:42;12.80;99.90
18103;DHT22;9178;51.120;6.192;2022-11-02T15:39:11;12.80;99.90
18103;DHT22;9178;51.120;6.192;2022-11-02T15:41:43;12.80;99.90
18103;DHT22;9178;51.120;6.192;2022-11-02T15:44:26;12.70;99.90
18103;DHT22;9178;51.120;6.192;2022-11-02T15:47:07;12.70;99.90
18103;DHT22;9178;51.120;6.192;2022-11-02T15:49:55;12.70;99.90
18103;DHT22;9178;51.120;6.192;2022-11-02T15:52:44;12.70;99.90
18103;DHT22;9178;51.120;6.192;2022-11-02T15:55:18;12.50;99.90
18103;DHT22;9178;51.120;6.192;2022-11-02T15:57:52;12.50;99.90
18103;DHT22;9178;51.120;6.192;2022-11-02T16:00:23;12.50;99.90
18103;DHT22;9178;51.120;6.192;2022-11-02T16:02:58;12.30;99.90
18103;DHT22;9178;51.120;6.192;2022-11-02T16:05:30;12.30;99.90
18103;DHT22;9178;51.120;6.192;2022-11-02T16:07:58;12.20;99.90
18103;DHT22;9178;51.120;6.192;2022-11-02T16:10:28;12.20;99.90
18103;DHT22;9178;51.120;6.192;2022-11-02T16:13:10;12.10;99.90
18103;DHT22;9178;51.120;6.192;2022-11-02T16:15:38;12.10;99.90
18103;DHT22;9178;51.120;6.192;2022-11-02T16:18:24;12.00;99.90
18103;DHT22;9178;51.120;6.192;2022-11-02T16:20:53;11.90;99.90
18103;DHT22;9178;51.120;6.192;2022-11-02T16:23:23;11.90;99.90